createdAt,value
2019-01-27T00:01:44.159Z,74.33
2019-01-27T00:04:15.568Z,74.32
2019-01-27T00:06:46.781Z,74.02
2019-01-27T00:09:17.934Z,74.05
2019-01-27T00:11:49.276Z,74.89
2019-01-27T00:14:20.458Z,75.05
2019-01-27T00:16:51.612Z,75.01
2019-01-27T00:19:22.766Z,75.22
2019-01-27T00:21:55.218Z,75.53
2019-01-27T00:24:26.521Z,75.43
2019-01-27T00:26:57.719Z,74.64
2019-01-27T00:29:28.867Z,74.87
2019-01-27T00:32:00.107Z,74.76
2019-01-27T00:34:31.258Z,75.38
2019-01-27T00:37:02.501Z,75.08
2019-01-27T00:39:33.622Z,75.26
2019-01-27T00:42:05.087Z,75.29
2019-01-27T00:44:36.481Z,74.80
2019-01-27T00:47:07.925Z,75.12
2019-01-27T00:49:38.906Z,75.29
2019-01-27T00:52:11.035Z,75.52
2019-01-27T00:54:42.097Z,74.98
2019-01-27T00:57:13.166Z,75.07
2019-01-27T00:59:44.234Z,74.98
2019-01-27T01:02:15.630Z,74.98
2019-01-27T01:04:47.007Z,75.98
2019-01-27T01:07:18.214Z,75.09
2019-01-27T01:09:49.291Z,74.66
2019-01-27T01:12:20.426Z,74.63
2019-01-27T01:14:51.616Z,74.65
2019-01-27T01:17:22.946Z,74.47
2019-01-27T01:19:54.180Z,74.79
2019-01-27T01:22:25.336Z,74.53
2019-01-27T01:24:56.462Z,74.62
2019-01-27T01:27:27.603Z,74.70
2019-01-27T01:29:58.731Z,74.87
2019-01-27T01:32:29.877Z,75.30
2019-01-27T01:35:00.967Z,74.94
2019-01-27T01:37:32.123Z,73.53
2019-01-27T01:40:03.236Z,73.12
2019-01-27T01:42:34.284Z,73.22
2019-01-27T01:45:09.305Z,73.63
2019-01-27T01:47:40.507Z,73.71
2019-01-27T01:50:11.605Z,73.91
2019-01-27T01:52:42.919Z,73.84
2019-01-27T01:55:14.866Z,73.63
2019-01-27T01:57:45.993Z,74.37
2019-01-27T02:00:19.332Z,74.24
2019-01-27T02:02:50.466Z,73.56
2019-01-27T02:05:21.867Z,73.28
2019-01-27T02:07:52.920Z,74.17
2019-01-27T02:10:24.343Z,73.21
2019-01-27T02:12:55.558Z,73.34
2019-01-27T02:16:07.679Z,73.53
2019-01-27T02:18:39.849Z,73.91
2019-01-27T02:21:11.265Z,74.47
2019-01-27T02:23:42.338Z,73.63
2019-01-27T02:26:13.023Z,73.81
2019-01-27T02:28:44.347Z,74.10
2019-01-27T02:31:16.561Z,74.29
2019-01-27T02:33:47.710Z,74.29
2019-01-27T02:36:18.872Z,73.90
2019-01-27T02:38:49.932Z,74.77
2019-01-27T02:41:21.090Z,74.32
2019-01-27T02:43:52.143Z,73.61
2019-01-27T02:46:23.233Z,73.49
2019-01-27T02:48:54.301Z,73.68
2019-01-27T02:51:25.411Z,73.77
2019-01-27T02:53:56.489Z,73.83
2019-01-27T02:56:27.616Z,73.70
2019-01-27T02:58:58.680Z,73.74
2019-01-27T03:01:29.828Z,73.56
2019-01-27T03:04:01.047Z,73.30
2019-01-27T03:06:37.616Z,73.56
2019-01-27T03:09:13.829Z,73.24
2019-01-27T03:11:50.073Z,72.73
2019-01-27T03:14:21.907Z,71.95
2019-01-27T03:16:54.378Z,71.73
2019-01-27T03:19:25.514Z,71.60
2019-01-27T03:21:56.833Z,72.28
2019-01-27T03:24:27.989Z,71.97
2019-01-27T03:26:59.091Z,72.22
2019-01-27T03:29:30.161Z,72.22
2019-01-27T03:32:01.295Z,71.19
2019-01-27T03:34:32.450Z,71.21
2019-01-27T03:37:03.726Z,71.04
2019-01-27T03:39:34.846Z,71.33
2019-01-27T03:42:06.482Z,71.32
2019-01-27T03:44:37.608Z,71.41
2019-01-27T03:47:08.777Z,72.08
2019-01-27T03:49:39.925Z,72.03
2019-01-27T03:52:11.119Z,72.21
2019-01-27T03:54:42.277Z,72.22
2019-01-27T03:57:13.388Z,71.77
2019-01-27T03:59:44.534Z,71.73
2019-01-27T04:02:15.827Z,71.78
2019-01-27T04:04:46.962Z,72.37
2019-01-27T04:07:18.176Z,72.19
2019-01-27T04:09:49.207Z,71.60
2019-01-27T04:12:20.319Z,71.41
2019-01-27T04:14:51.470Z,71.34
2019-01-27T04:17:22.659Z,71.08
2019-01-27T04:19:53.753Z,70.90
2019-01-27T04:22:24.822Z,71.01
2019-01-27T04:24:56.146Z,70.85
2019-01-27T04:27:27.189Z,71.26
2019-01-27T04:29:58.371Z,70.47
2019-01-27T04:32:29.503Z,70.34
2019-01-27T04:35:00.582Z,70.77
2019-01-27T04:37:31.694Z,70.21
2019-01-27T04:40:02.802Z,71.06
2019-01-27T04:42:33.874Z,71.26
2019-01-27T04:45:06.643Z,71.21
2019-01-27T04:47:37.759Z,71.50
2019-01-27T04:50:11.585Z,71.17
2019-01-27T04:52:42.957Z,71.67
2019-01-27T04:55:14.804Z,71.61
2019-01-27T04:57:46.037Z,72.05
2019-01-27T05:00:20.117Z,72.54
2019-01-27T05:03:09.400Z,73.28
2019-01-27T05:05:40.910Z,73.22
2019-01-27T05:08:11.978Z,73.37
2019-01-27T05:10:43.052Z,74.23
2019-01-27T05:13:14.180Z,73.41
2019-01-27T05:15:45.233Z,73.25
2019-01-27T05:18:16.367Z,73.53
2019-01-27T05:20:47.427Z,73.65
2019-01-27T05:23:18.601Z,73.45
2019-01-27T05:25:49.619Z,73.33
2019-01-27T05:28:20.634Z,73.42
2019-01-27T05:30:51.710Z,72.93
2019-01-27T05:33:22.742Z,72.89
2019-01-27T05:35:53.809Z,73.23
2019-01-27T05:38:24.895Z,72.96
2019-01-27T05:40:56.835Z,72.79
2019-01-27T05:43:27.986Z,72.91
2019-01-27T05:45:59.146Z,72.68
2019-01-27T05:48:30.182Z,73.17
2019-01-27T05:51:01.213Z,72.97
2019-01-27T05:53:32.454Z,72.17
2019-01-27T05:56:03.599Z,71.86
2019-01-27T05:58:34.594Z,70.78
2019-01-27T06:01:05.804Z,70.71
2019-01-27T06:03:36.773Z,70.63
2019-01-27T06:06:07.907Z,70.77
2019-01-27T06:08:38.932Z,70.32
2019-01-27T06:11:10.080Z,70.41
2019-01-27T06:13:41.225Z,70.72
2019-01-27T06:16:12.271Z,70.88
2019-01-27T06:18:43.409Z,70.15
2019-01-27T06:21:14.474Z,69.60
2019-01-27T06:23:45.579Z,69.29
2019-01-27T06:26:16.733Z,69.35
2019-01-27T06:28:47.789Z,69.31
2019-01-27T06:31:18.933Z,69.77
2019-01-27T06:33:55.106Z,69.22
2019-01-27T06:36:26.341Z,69.16
2019-01-27T06:38:57.534Z,69.45
2019-01-27T06:41:28.640Z,69.82
2019-01-27T06:43:59.632Z,70.01
2019-01-27T06:46:30.800Z,69.91
2019-01-27T06:49:01.820Z,69.71
2019-01-27T06:51:32.990Z,70.03
2019-01-27T06:54:04.871Z,70.10
2019-01-27T06:56:36.025Z,70.08
2019-01-27T06:59:25.138Z,69.65
2019-01-27T07:02:06.601Z,69.52
2019-01-27T07:04:43.353Z,69.67
2019-01-27T07:07:45.727Z,69.66
2019-01-27T07:10:45.608Z,69.59
2019-01-27T07:13:41.680Z,69.44
2019-01-27T07:16:43.898Z,69.66
2019-01-27T07:19:35.387Z,69.77
2019-01-27T07:22:24.846Z,69.94
2019-01-27T07:25:16.266Z,69.91
2019-01-27T07:28:09.322Z,70.15
2019-01-27T07:31:11.913Z,70.30
2019-01-27T07:34:11.048Z,70.22
2019-01-27T07:37:13.630Z,70.73
2019-01-27T07:40:02.518Z,70.87
2019-01-27T07:43:02.485Z,71.12
2019-01-27T07:45:41.290Z,71.05
2019-01-27T07:48:49.582Z,70.85
2019-01-27T07:51:30.778Z,70.01
2019-01-27T07:54:19.408Z,70.05
2019-01-27T07:57:02.452Z,69.98
2019-01-27T07:59:52.533Z,70.28
2019-01-27T08:02:41.424Z,70.13
2019-01-27T08:05:30.299Z,70.41
2019-01-27T08:08:23.486Z,70.86
2019-01-27T08:11:05.214Z,70.70
2019-01-27T08:13:46.192Z,70.22
2019-01-27T08:16:25.219Z,69.90
2019-01-27T08:19:08.231Z,70.27
2019-01-27T08:22:01.148Z,69.92
2019-01-27T08:24:40.628Z,70.05
2019-01-27T08:27:39.782Z,70.29
2019-01-27T08:30:39.031Z,70.25
2019-01-27T08:33:32.222Z,70.00
2019-01-27T08:36:16.537Z,69.77
2019-01-27T08:39:21.942Z,68.90
2019-01-27T08:42:20.971Z,68.45
2019-01-27T08:45:12.315Z,66.91
2019-01-27T08:47:43.471Z,66.52
2019-01-27T08:50:17.099Z,66.23
2019-01-27T08:52:48.138Z,66.10
2019-01-27T08:55:19.488Z,66.13
2019-01-27T08:57:50.540Z,65.51
2019-01-27T09:00:36.667Z,65.39
2019-01-27T09:03:16.280Z,65.32
2019-01-27T09:06:12.196Z,65.37
2019-01-27T09:09:05.145Z,65.25
2019-01-27T09:12:07.604Z,66.09
2019-01-27T09:14:50.292Z,65.81
2019-01-27T09:17:43.458Z,65.89
2019-01-27T09:20:32.215Z,65.75
2019-01-27T09:23:25.543Z,65.80
2019-01-27T09:26:17.302Z,65.67
2019-01-27T09:29:00.116Z,65.07
2019-01-27T09:31:39.444Z,64.89
2019-01-27T09:34:44.763Z,64.45
2019-01-27T09:37:33.859Z,64.25
2019-01-27T09:40:24.663Z,63.46
2019-01-27T09:43:20.716Z,63.60
2019-01-27T09:46:22.903Z,63.47
2019-01-27T09:49:18.921Z,63.79
2019-01-27T09:51:59.559Z,63.01
2019-01-27T09:55:07.942Z,62.62
2019-01-27T09:57:56.929Z,62.83
2019-01-27T10:00:39.026Z,61.88
2019-01-27T10:03:38.141Z,60.22
2019-01-27T10:06:27.430Z,60.61
2019-01-27T10:09:15.025Z,61.49
2019-01-27T10:11:55.390Z,62.53
2019-01-27T10:14:57.797Z,63.49
2019-01-27T10:17:46.325Z,62.55
2019-01-27T10:20:39.624Z,61.99
2019-01-27T10:23:22.995Z,62.75
2019-01-27T10:26:02.063Z,62.60
2019-01-27T10:28:45.884Z,62.23
2019-01-27T10:31:35.022Z,63.17
2019-01-27T10:34:21.744Z,64.15
2019-01-27T10:37:12.236Z,64.18
2019-01-27T10:39:56.814Z,62.76
2019-01-27T10:42:34.775Z,62.28
2019-01-27T10:45:22.244Z,62.25
2019-01-27T10:48:09.766Z,60.47
2019-01-27T10:50:48.806Z,61.74
2019-01-27T10:53:34.844Z,61.95
2019-01-27T10:56:21.890Z,60.33
2019-01-27T10:59:00.422Z,59.94
2019-01-27T11:01:52.435Z,59.25
2019-01-27T11:04:48.992Z,60.37
2019-01-27T11:07:57.151Z,60.10
2019-01-27T11:10:47.463Z,59.49
2019-01-27T11:13:40.456Z,59.83
2019-01-27T11:16:31.907Z,59.36
2019-01-27T11:19:10.977Z,58.52
2019-01-27T11:22:01.131Z,58.54
2019-01-27T11:24:57.537Z,59.65
2019-01-27T11:27:53.513Z,58.47
2019-01-27T11:30:42.479Z,59.27
2019-01-27T11:33:25.734Z,57.58
2019-01-27T11:36:14.993Z,56.92
2019-01-27T11:39:23.742Z,57.20
2019-01-27T11:42:19.780Z,56.87
2019-01-27T11:44:52.218Z,56.71
2019-01-27T11:47:38.924Z,58.08
2019-01-27T11:50:18.163Z,58.37
2019-01-27T11:53:08.679Z,58.89
2019-01-27T11:55:39.756Z,58.59
2019-01-27T11:58:10.922Z,58.87
2019-01-27T12:00:46.215Z,58.48
2019-01-27T12:03:17.461Z,58.47
2019-01-27T12:05:48.724Z,58.28
2019-01-27T12:08:19.707Z,58.10
2019-01-27T12:10:50.698Z,56.95
2019-01-27T12:13:21.748Z,57.08
2019-01-27T12:15:52.906Z,57.04
2019-01-27T12:18:24.067Z,56.82
2019-01-27T12:20:55.698Z,56.90
2019-01-27T12:23:26.824Z,56.21
2019-01-27T12:25:57.905Z,56.35
2019-01-27T12:28:29.039Z,57.19
2019-01-27T12:31:00.169Z,56.66
2019-01-27T12:33:31.310Z,56.65
2019-01-27T12:36:02.454Z,56.82
2019-01-27T12:38:33.602Z,57.60
2019-01-27T12:41:04.828Z,57.24
2019-01-27T12:43:35.901Z,57.64
2019-01-27T12:46:07.041Z,57.02
2019-01-27T12:48:38.182Z,57.51
2019-01-27T12:51:09.237Z,56.99
2019-01-27T12:53:40.349Z,57.66
2019-01-27T12:56:11.485Z,57.06
2019-01-27T12:58:42.462Z,57.22
2019-01-27T13:01:14.076Z,57.17
2019-01-27T13:03:46.938Z,57.61
2019-01-27T13:06:18.036Z,57.42
2019-01-27T13:08:49.111Z,57.88
2019-01-27T13:11:20.248Z,57.30
2019-01-27T13:13:51.233Z,57.10
2019-01-27T13:16:23.076Z,57.17
2019-01-27T13:18:54.141Z,56.97
2019-01-27T13:21:25.286Z,56.68
2019-01-27T13:23:56.433Z,56.75
2019-01-27T13:26:27.852Z,56.78
2019-01-27T13:28:59.010Z,56.31
2019-01-27T13:31:31.311Z,56.10
2019-01-27T13:34:02.544Z,55.90
2019-01-27T13:36:35.371Z,55.59
2019-01-27T13:39:08.748Z,55.03
2019-01-27T13:41:39.875Z,55.74
2019-01-27T13:44:11.106Z,55.40
2019-01-27T13:46:42.152Z,56.48
2019-01-27T13:49:13.291Z,56.21
2019-01-27T13:51:44.425Z,56.33
2019-01-27T13:54:15.531Z,56.34
2019-01-27T13:56:46.665Z,56.37
2019-01-27T13:59:19.263Z,56.09
2019-01-27T14:01:50.291Z,56.48
2019-01-27T14:04:21.807Z,56.08
2019-01-27T14:06:53.138Z,55.35
2019-01-27T14:09:24.296Z,54.43
2019-01-27T14:11:55.440Z,55.38
2019-01-27T14:14:26.558Z,55.58
2019-01-27T14:16:58.434Z,55.97
2019-01-27T14:19:29.642Z,57.00
2019-01-27T14:22:00.743Z,56.62
2019-01-27T14:24:31.843Z,56.86
2019-01-27T14:27:02.895Z,56.79
2019-01-27T14:29:34.165Z,57.46
2019-01-27T14:32:05.508Z,57.74
2019-01-27T14:34:36.543Z,57.33
2019-01-27T14:37:07.722Z,58.51
2019-01-27T14:39:38.730Z,59.23
2019-01-27T14:42:09.879Z,59.27
2019-01-27T14:44:40.961Z,60.05
2019-01-27T14:47:12.141Z,60.54
2019-01-27T14:49:43.188Z,61.31
2019-01-27T14:52:14.334Z,61.98
2019-01-27T14:54:45.378Z,62.41
2019-01-27T14:57:16.630Z,62.86
2019-01-27T14:59:47.686Z,62.54
2019-01-27T15:02:18.924Z,62.74
2019-01-27T15:04:49.995Z,62.94
2019-01-27T15:07:21.164Z,62.92
2019-01-27T15:09:52.157Z,62.99
2019-01-27T15:12:23.514Z,62.93
2019-01-27T15:14:54.580Z,63.24
2019-01-27T15:17:26.511Z,63.41
2019-01-27T15:19:57.662Z,63.10
2019-01-27T15:22:28.813Z,62.75
2019-01-27T15:24:59.890Z,62.67
2019-01-27T15:27:31.096Z,62.70
2019-01-27T15:30:02.327Z,62.70
2019-01-27T15:32:33.685Z,62.43
2019-01-27T15:35:05.308Z,62.28
2019-01-27T15:37:36.493Z,62.08
2019-01-27T15:40:08.791Z,62.12
2019-01-27T15:42:41.180Z,62.10
2019-01-27T15:45:15.198Z,62.02
2019-01-27T15:47:48.449Z,62.72
2019-01-27T15:50:21.560Z,62.54
2019-01-27T15:52:52.836Z,62.40
2019-01-27T15:55:23.962Z,62.15
2019-01-27T15:57:55.100Z,62.22
2019-01-27T16:00:28.420Z,62.02
2019-01-27T16:03:00.062Z,61.84
2019-01-27T16:05:31.355Z,62.26
2019-01-27T16:08:02.635Z,62.72
2019-01-27T16:10:33.770Z,62.27
2019-01-27T16:13:05.223Z,62.55
2019-01-27T16:15:36.379Z,62.11
2019-01-27T16:18:07.726Z,61.99
2019-01-27T16:20:39.115Z,62.19
2019-01-27T16:23:29.266Z,61.83
2019-01-27T16:26:01.485Z,58.75
2019-01-27T16:28:32.635Z,59.45
2019-01-27T16:31:28.997Z,59.44
2019-01-27T16:34:22.508Z,59.06
2019-01-27T16:36:53.720Z,59.54
2019-01-27T16:39:25.047Z,59.83
2019-01-27T16:41:56.107Z,59.59
2019-01-27T16:44:27.376Z,60.05
2019-01-27T16:46:58.396Z,59.77
2019-01-27T16:49:29.577Z,60.25
2019-01-27T16:52:00.728Z,60.03
2019-01-27T16:54:32.328Z,60.14
2019-01-27T16:57:03.527Z,60.20
2019-01-27T16:59:34.537Z,60.08
2019-01-27T17:02:05.889Z,60.45
2019-01-27T17:04:36.955Z,60.47
2019-01-27T17:07:08.008Z,60.51
2019-01-27T17:09:39.161Z,60.56
2019-01-27T17:12:10.561Z,60.70
2019-01-27T17:14:41.690Z,60.98
2019-01-27T17:17:12.906Z,60.92
2019-01-27T17:19:44.527Z,61.14
2019-01-27T17:22:15.752Z,61.30
2019-01-27T17:24:47.787Z,61.72
2019-01-27T17:27:18.845Z,61.76
2019-01-27T17:29:49.885Z,61.74
2019-01-27T17:32:20.992Z,61.31
2019-01-27T17:34:51.988Z,61.50
2019-01-27T17:37:23.149Z,61.97
2019-01-27T17:39:54.279Z,61.51
2019-01-27T17:42:25.507Z,61.29
2019-01-27T17:44:56.663Z,61.60
2019-01-27T17:47:27.735Z,61.29
2019-01-27T17:49:58.806Z,61.46
2019-01-27T17:52:29.858Z,61.58
2019-01-27T17:55:01.494Z,61.19
2019-01-27T17:58:03.611Z,61.08
2019-01-27T18:00:56.327Z,61.27
2019-01-27T18:03:39.558Z,61.16
2019-01-27T18:06:19.260Z,60.99
2019-01-27T18:09:09.951Z,60.69
2019-01-27T18:11:45.315Z,60.66
2019-01-27T18:14:23.411Z,61.04
2019-01-27T18:16:55.716Z,60.79
2019-01-27T18:19:26.775Z,60.83
2019-01-27T18:21:58.183Z,60.89
2019-01-27T18:24:29.350Z,61.05
2019-01-27T18:27:00.595Z,61.10
2019-01-27T18:29:31.734Z,61.16
2019-01-27T18:32:02.994Z,61.05
2019-01-27T18:34:34.025Z,61.01
2019-01-27T18:37:06.241Z,61.53
2019-01-27T18:39:37.331Z,61.63
2019-01-27T18:42:08.691Z,61.93
2019-01-27T18:44:39.837Z,62.80
2019-01-27T18:47:10.986Z,62.87
2019-01-27T18:49:42.007Z,62.95
2019-01-27T18:52:13.130Z,62.96
2019-01-27T18:55:03.198Z,63.02
2019-01-27T18:57:48.176Z,63.11
2019-01-27T19:00:38.295Z,63.14
2019-01-27T19:03:14.122Z,62.91
2019-01-27T19:05:59.488Z,63.10
2019-01-27T19:08:39.342Z,63.47
2019-01-27T19:11:30.212Z,63.56
2019-01-27T19:14:38.790Z,63.69
2019-01-27T19:17:19.315Z,64.10
2019-01-27T19:19:58.271Z,63.93
2019-01-27T19:22:51.005Z,64.24
2019-01-27T19:25:44.184Z,63.87
2019-01-27T19:28:49.285Z,63.95
2019-01-27T19:31:26.696Z,64.37
2019-01-27T19:34:22.472Z,64.85
2019-01-27T19:37:04.948Z,64.92
2019-01-27T19:39:56.094Z,64.72
2019-01-27T19:42:53.090Z,64.68
2019-01-27T19:45:49.252Z,64.84
2019-01-27T19:48:29.919Z,65.37
2019-01-27T19:51:14.535Z,64.77
2019-01-27T19:54:12.640Z,65.33
2019-01-27T19:56:56.750Z,65.15
2019-01-27T19:59:45.640Z,65.18
2019-01-27T20:02:35.623Z,65.80
2019-01-27T20:05:26.107Z,64.69
2019-01-27T20:08:28.255Z,65.42
2019-01-27T20:11:18.310Z,65.66
2019-01-27T20:14:08.445Z,66.27
2019-01-27T20:16:59.977Z,66.35
2019-01-27T20:19:48.221Z,66.10
2019-01-27T20:22:30.831Z,66.75
2019-01-27T20:25:09.430Z,66.95
2019-01-27T20:28:08.706Z,66.67
2019-01-27T20:31:01.653Z,66.59
2019-01-27T20:33:50.659Z,66.39
2019-01-27T20:36:40.796Z,66.63
2019-01-27T20:39:33.814Z,67.22
2019-01-27T20:42:30.535Z,67.93
2019-01-27T20:45:19.306Z,67.96
2019-01-27T20:48:01.200Z,68.73
2019-01-27T20:50:44.529Z,74.27
2019-01-27T20:53:26.384Z,76.52
2019-01-27T20:56:05.257Z,77.98
2019-01-27T20:58:57.166Z,78.46
2019-01-27T21:01:50.177Z,78.48
2019-01-27T21:04:30.074Z,78.23
2019-01-27T21:07:22.200Z,78.50
2019-01-27T21:10:18.139Z,78.15
2019-01-27T21:13:15.200Z,78.06
2019-01-27T21:15:51.858Z,77.57
2019-01-27T21:18:27.732Z,76.88
2019-01-27T21:20:58.799Z,76.40
2019-01-27T21:23:31.599Z,76.52
2019-01-27T21:26:02.728Z,76.71
2019-01-27T21:28:33.857Z,77.19
2019-01-27T21:31:06.547Z,77.57
2019-01-27T21:33:39.153Z,77.32
2019-01-27T21:36:10.377Z,78.06
2019-01-27T21:38:41.489Z,78.17
2019-01-27T21:41:12.631Z,77.67
2019-01-27T21:43:43.737Z,77.92
2019-01-27T21:46:14.867Z,77.94
2019-01-27T21:48:46.062Z,77.94
2019-01-27T21:51:17.217Z,77.31
2019-01-27T21:53:48.242Z,76.88
2019-01-27T21:56:19.382Z,77.08
2019-01-27T21:58:50.455Z,76.73
2019-01-27T22:01:25.478Z,76.24
2019-01-27T22:03:54.638Z,75.35
2019-01-27T22:06:28.459Z,76.17
2019-01-27T22:08:59.537Z,75.95
2019-01-27T22:11:30.839Z,75.88
2019-01-27T22:14:01.891Z,75.98
2019-01-27T22:16:32.931Z,75.70
2019-01-27T22:19:04.021Z,75.04
2019-01-27T22:21:35.145Z,75.02
2019-01-27T22:24:06.217Z,74.52
2019-01-27T22:26:37.355Z,74.72
2019-01-27T22:29:08.520Z,73.88
2019-01-27T22:31:39.642Z,74.24
2019-01-27T22:34:10.795Z,74.59
2019-01-27T22:36:41.915Z,73.69
2019-01-27T22:39:13.088Z,73.42
2019-01-27T22:41:44.300Z,73.06
2019-01-27T22:44:15.320Z,72.71
2019-01-27T22:46:46.765Z,72.81
2019-01-27T22:49:17.840Z,72.29
2019-01-27T22:51:48.899Z,72.28
2019-01-27T22:54:20.047Z,72.22
2019-01-27T22:56:51.109Z,72.19
2019-01-27T22:59:22.297Z,72.46
2019-01-27T23:01:53.536Z,72.83
2019-01-27T23:04:24.691Z,72.26
2019-01-27T23:06:56.414Z,72.50
2019-01-27T23:09:30.034Z,72.06
2019-01-27T23:12:01.759Z,72.30
2019-01-27T23:14:32.890Z,72.47
2019-01-27T23:17:04.145Z,72.32
2019-01-27T23:19:35.379Z,72.60
2019-01-27T23:22:06.490Z,71.90
2019-01-27T23:24:37.786Z,72.15
2019-01-27T23:27:08.917Z,72.22
2019-01-27T23:29:40.184Z,72.36
2019-01-27T23:32:11.459Z,73.29
2019-01-27T23:34:42.573Z,73.23
2019-01-27T23:37:13.805Z,71.50
2019-01-27T23:39:44.816Z,71.81
2019-01-27T23:42:15.982Z,71.75
2019-01-27T23:44:46.976Z,71.61
2019-01-27T23:47:18.214Z,72.11
2019-01-27T23:49:49.350Z,71.83
2019-01-27T23:52:20.485Z,72.10
2019-01-27T23:54:51.684Z,71.49
2019-01-27T23:57:22.729Z,71.17
2019-01-27T23:59:53.958Z,70.44
